• Join FlightAware (Why Join?)
  • Login
  • US Flag 
12:08PM EDT


 

Airport Tracker/Info


-or-


 

Live Flight TrackerFlight Track Log ✈ UJC25 ✈ 29-Jun-2013 ✈ KELK - KLUK

Flight Track Log - Related Links

Times and Time Zones

All times are in EDT time to prevent confusion due to time zone crossing. See the UJC25 flight status page for this flight to view local times or setup timezone preferences in your user account.

Time Position Orientation Groundspeed Altitude Reporting Facility
EDT Latitude Longitude Course Direction KTS MPH feet Rate Location/Type
06:49PM 37.2217 -92.3594 66° East 416 479 31,000  Level Kansas City Center
06:50PM 37.2656 -92.2356 66° East 400 460 31,000  Level Kansas City Center
06:52PM 37.3186 -92.1194 60° Northeast 390 449 31,000  Level Kansas City Center
06:53PM 37.3725 -92.0000 60° Northeast 389 448 31,000  Level Kansas City Center
06:54PM 37.4086 -91.8803 69° East 373 429 31,000  Level Kansas City Center
06:55PM 37.4442 -91.7589 70° East 370 426 31,000  Level Kansas City Center
06:56PM 37.4856 -91.6097 71° East 376 433 31,000  Level Kansas City Center
06:57PM 37.5153 -91.4839 73° East 376 433 31,000  Level Kansas City Center
06:58PM 37.5350 -91.3572 79° East 371 427 31,000  Level Kansas City Center
06:59PM 37.5531 -91.2297 80° East 371 427 31,000  Level Kansas City Center
07:00PM 37.5894 -91.1058 70° East 374 430 31,000  Level Kansas City Center
07:01PM 37.6289 -90.9694 70° East 378 435 31,000  Level Kansas City Center
07:02PM 37.6642 -90.8458 70° East 376 433 31,000  Level Kansas City Center
07:03PM 37.6992 -90.7217 70° East 377 434 31,000  Level Kansas City Center
07:04PM 37.7361 -90.5944 70° East 384 442 31,000  Level Kansas City Center
07:05PM 37.7728 -90.4644 70° East 391 450 31,000  Level Kansas City Center
07:06PM 37.8097 -90.3322 70° East 396 456 31,000  Level Kansas City Center
07:07PM 37.8539 -90.1711 71° East 402 463 31,000  Level Kansas City Center
07:08PM 37.8919 -90.0347 70° East 398 458 31,000  Level Kansas City Center
07:09PM 37.9278 -89.9075 70° East 390 449 31,000  Level Kansas City Center
07:10PM 37.9661 -89.7692 71° East 388 447 31,000  Level Kansas City Center
07:11PM 38.0011 -89.6433 71° East 382 440 31,000  Level Kansas City Center
07:12PM 38.0358 -89.5164 71° East 383 441 31,000  Level Kansas City Center
07:13PM 38.0739 -89.3761 71° East 390 449 31,000  Level Kansas City Center
07:14PM 38.1092 -89.2442 71° East 395 455 31,000  Level Kansas City Center
07:15PM 38.1453 -89.1111 71° East 398 458 31,000  Level Kansas City Center
07:16PM 38.1778 -88.9839 72° East 392 451 31,000  Level Kansas City Center
07:17PM 38.2128 -88.8539 71° East 389 448 31,000  Level Kansas City Center
07:18PM 38.2464 -88.7231 72° East 391 450 31,000  Level Kansas City Center
07:19PM 38.2861 -88.5753 71° East 385 443 31,000  Level Kansas City Center
07:20PM 38.3217 -88.4417 71° East 392 451 31,000  Level Kansas City Center
07:21PM 38.3569 -88.3078 71° East 396 456 31,000  Level Kansas City Center
07:22PM 38.3781 -88.1706 79° East 394 453 31,000 -420 Level Kansas City Center
07:23PM 38.3906 -88.0306 83° East 396 456 30,200 -1,140 Descending Indianapolis Center
07:24PM 38.4031 -87.8933 83° East 390 449 28,800 -1,380 Descending Indianapolis Center
07:25PM 38.4158 -87.7483 84° East 405 466 27,400 -1,380 Descending Indianapolis Center
07:26PM 38.4292 -87.6042 83° East 407 468 26,000 -1,440 Descending Indianapolis Center
07:27PM 38.4414 -87.4622 84° East 402 463 24,500 -1,560 Descending Indianapolis Center
07:28PM 38.4556 -87.3125 83° East 416 479 22,900 -1,320 Descending Indianapolis Center
07:29PM 38.4681 -87.1653 84° East 412 474 21,900 -900 Descending Indianapolis Center
07:31PM 38.4808 -87.0153 84° East 414 476 20,900 -960 Descending Indianapolis Center
07:32PM 38.4956 -86.8364 84° East 415 478 19,800 -960 Descending Indianapolis Center
07:33PM 38.5078 -86.6936 84° East 403 464 19,000 -420 Descending Indianapolis Center
07:34PM 38.5197 -86.5458 84° East 412 474 19,000  Level Indianapolis Center
07:35PM 38.5408 -86.3719 81° East 414 476 19,000 -900 Level Indianapolis Center
07:36PM 38.5764 -86.2522 69° East 363 418 17,200 -1,800 Descending Indianapolis Center
07:37PM 38.6106 -86.1394 69° East 341 392 15,400 -1,680 Descending Indianapolis Center
07:38PM 38.6444 -86.0256 69° East 342 394 13,800 -1,680 Descending Indianapolis Center
07:39PM 38.6767 -85.9183 69° East 326 375 12,100 -900 Descending Indianapolis Center
07:40PM 38.7042 -85.8225 70° East 320 368 12,000 -60 Descending Indianapolis Center
07:41PM 38.7444 -85.6819 70° East 353 406 12,000  Level Indianapolis Center
07:42PM 38.7811 -85.5583 69° East 369 425 12,000  Level Indianapolis Center
07:43PM 38.8153 -85.4358 70° East 367 422 12,000 -120 Level Indianapolis Center
07:44PM 38.8503 -85.3186 69° East 356 410 11,800 -840 Descending Indianapolis Center
07:45PM 38.8786 -85.2175 70° East 310 357 10,300 -900 Descending Indianapolis Center
07:46PM 38.9078 -85.1158 70° East 303 349 10,000 -180 Descending Indianapolis Center
07:47PM 38.9364 -85.0131 70° East 307 353 10,000 -480 Level Indianapolis Center
07:48PM 38.9606 -84.9142 73° East 293 337 9,100 -1,380 Descending Indianapolis Center
07:49PM 38.9833 -84.8333 70° East 298 343 7,800 -1,320 Descending Cincinnati TRACON
07:50PM 39.0000 -84.7333 78° East 287 330 7,000 -420 Descending Cincinnati TRACON
07:51PM 39.0167 -84.6333 78° East 291 335 7,000  Level Cincinnati TRACON
07:52PM 39.0500 -84.5500 63° Northeast 251 289 7,000 -240 Level Cincinnati TRACON
07:52PM 39.0481 -84.5131 94° East 254 292 6,700 -840 Descending Indianapolis Center
07:53PM 39.0528 -84.4494 85° East 175 201 5,700 -1,560 Descending Indianapolis Center
07:54PM 39.0633 -84.3917 77° East 164 189 3,600 -1,380 Descending Indianapolis Center
07:55PM 39.1078 -84.3547 33° Northeast 162 186 2,900 -720 Descending Indianapolis Center
07:58PM 39.1000 -84.4167 218° Southwest  Level FlightAware Approximate